createdAt,value
2022-10-13T00:00:53.430Z,53.34
2022-10-13T00:03:19.912Z,53.12
2022-10-13T00:05:48.695Z,53.23
2022-10-13T00:08:19.369Z,53.09
2022-10-13T00:10:48.189Z,53.43
2022-10-13T00:13:15.133Z,53.28
2022-10-13T00:15:45.558Z,53.46
2022-10-13T00:18:12.763Z,53.46
2022-10-13T00:20:48.485Z,53.34
2022-10-13T00:23:15.663Z,53.04
2022-10-13T00:25:43.863Z,53.13
2022-10-13T00:28:10.351Z,53.24
2022-10-13T00:30:38.073Z,53.45
2022-10-13T00:33:04.788Z,53.15
2022-10-13T00:35:31.099Z,53.08
2022-10-13T00:37:57.474Z,53.52
2022-10-13T00:40:23.981Z,53.34
2022-10-13T00:42:50.308Z,53.46
2022-10-13T00:45:23.510Z,53.49
2022-10-13T00:47:59.132Z,52.96
2022-10-13T00:50:39.498Z,53.17
2022-10-13T00:53:07.163Z,53.08
2022-10-13T00:55:36.610Z,52.98
2022-10-13T00:58:06.451Z,53.28
2022-10-13T01:00:34.142Z,53.18
2022-10-13T01:03:01.479Z,53.05
2022-10-13T01:05:29.580Z,53.45
2022-10-13T01:07:57.227Z,53.14
2022-10-13T01:10:34.811Z,53.45
2022-10-13T01:13:07.477Z,53.54
2022-10-13T01:15:57.003Z,53.24
2022-10-13T01:18:32.330Z,53.08
2022-10-13T01:21:18.262Z,53.16
2022-10-13T01:24:07.979Z,52.99
2022-10-13T01:26:34.292Z,52.98
2022-10-13T01:29:15.892Z,53.51
2022-10-13T01:31:55.380Z,53.38
2022-10-13T01:34:43.980Z,53.29
2022-10-13T01:37:26.428Z,53.54
2022-10-13T01:40:15.279Z,53.31
2022-10-13T01:42:55.248Z,53.20
2022-10-13T01:45:28.555Z,53.11
2022-10-13T01:47:57.508Z,53.04
2022-10-13T01:50:23.832Z,53.40
2022-10-13T01:52:51.943Z,53.46
2022-10-13T01:55:18.792Z,53.21
2022-10-13T01:57:45.404Z,53.58
2022-10-13T02:00:16.742Z,53.53
2022-10-13T02:03:07.096Z,53.23
2022-10-13T02:05:49.244Z,53.35
2022-10-13T02:08:38.591Z,53.37
2022-10-13T02:11:16.090Z,53.20
2022-10-13T02:13:54.503Z,53.32
2022-10-13T02:16:23.466Z,52.97
2022-10-13T02:18:51.172Z,53.42
2022-10-13T02:21:18.331Z,53.45
2022-10-13T02:23:45.767Z,53.11
2022-10-13T02:26:13.243Z,53.18
2022-10-13T02:28:40.203Z,53.11
2022-10-13T02:31:09.219Z,53.48
2022-10-13T02:33:35.687Z,53.06
2022-10-13T02:36:02.011Z,53.10
2022-10-13T02:38:28.311Z,53.19
2022-10-13T02:40:54.950Z,53.10
2022-10-13T02:43:21.279Z,53.46
2022-10-13T02:45:47.677Z,53.55
2022-10-13T02:48:13.982Z,53.29
2022-10-13T02:50:40.292Z,53.20
2022-10-13T02:53:06.587Z,53.30
2022-10-13T02:55:32.888Z,53.11
2022-10-13T02:57:59.190Z,53.32
2022-10-13T03:00:25.895Z,53.25
2022-10-13T03:02:52.280Z,53.34
2022-10-13T03:05:18.656Z,53.48
2022-10-13T03:07:44.962Z,53.21
2022-10-13T03:10:11.277Z,53.49
2022-10-13T03:12:37.580Z,53.41
2022-10-13T03:15:04.256Z,53.14
2022-10-13T03:17:30.559Z,53.36
2022-10-13T03:19:56.902Z,53.50
2022-10-13T03:22:23.457Z,53.46
2022-10-13T03:24:49.853Z,53.46
2022-10-13T03:27:16.180Z,53.40
2022-10-13T03:29:42.540Z,53.37
2022-10-13T03:32:09.128Z,53.53
2022-10-13T03:34:35.447Z,53.62
2022-10-13T03:37:01.824Z,53.47
2022-10-13T03:39:28.219Z,53.18
2022-10-13T03:41:54.544Z,53.27
2022-10-13T03:44:20.868Z,53.12
2022-10-13T03:46:47.204Z,53.56
2022-10-13T03:49:13.633Z,53.37
2022-10-13T03:51:39.985Z,53.15
2022-10-13T03:54:06.411Z,53.56
2022-10-13T03:56:32.782Z,53.26
2022-10-13T03:59:00.466Z,53.26
2022-10-13T04:01:29.174Z,53.32
2022-10-13T04:03:56.989Z,53.51
2022-10-13T04:06:24.656Z,53.43
2022-10-13T04:08:51.608Z,53.51
2022-10-13T04:11:18.960Z,53.45
2022-10-13T04:13:46.076Z,53.28
2022-10-13T04:16:15.547Z,53.53
2022-10-13T04:18:44.669Z,53.30
2022-10-13T04:21:13.982Z,53.54
2022-10-13T04:23:41.782Z,53.34
2022-10-13T04:26:18.884Z,53.24
2022-10-13T04:28:46.584Z,53.48
2022-10-13T04:31:13.076Z,53.39
2022-10-13T04:33:39.812Z,53.62
2022-10-13T04:36:08.752Z,53.39
2022-10-13T04:38:35.083Z,53.42
2022-10-13T04:41:06.204Z,53.26
2022-10-13T04:43:33.732Z,53.55
2022-10-13T04:46:05.267Z,53.32
2022-10-13T04:48:31.651Z,53.51
2022-10-13T04:51:02.372Z,53.25
2022-10-13T04:53:29.480Z,53.50
2022-10-13T04:55:56.868Z,53.70
2022-10-13T04:58:23.534Z,53.17
2022-10-13T05:00:50.334Z,53.59
2022-10-13T05:03:16.875Z,53.39
2022-10-13T05:05:43.388Z,53.51
2022-10-13T05:08:09.695Z,53.49
2022-10-13T05:10:36.011Z,53.62
2022-10-13T05:13:02.405Z,53.34
2022-10-13T05:15:28.716Z,53.33
2022-10-13T05:17:55.144Z,53.30
2022-10-13T05:20:21.479Z,53.31
2022-10-13T05:22:47.774Z,53.39
2022-10-13T05:25:14.117Z,53.25
2022-10-13T05:27:40.471Z,53.26
2022-10-13T05:30:07.420Z,53.20
2022-10-13T05:32:35.172Z,53.24
2022-10-13T05:35:01.525Z,53.40
2022-10-13T05:37:27.857Z,53.48
2022-10-13T05:39:54.168Z,53.43
2022-10-13T05:42:20.848Z,53.57
2022-10-13T05:44:47.417Z,53.62
2022-10-13T05:47:13.806Z,53.35
2022-10-13T05:49:40.886Z,53.40
2022-10-13T05:52:10.539Z,53.25
2022-10-13T05:54:41.955Z,53.53
2022-10-13T05:57:17.202Z,53.34
2022-10-13T05:59:49.419Z,53.19
2022-10-13T06:02:19.354Z,53.65
2022-10-13T06:04:48.935Z,53.62
2022-10-13T06:07:15.461Z,53.31
2022-10-13T06:09:42.904Z,53.42
2022-10-13T06:12:10.091Z,53.47
2022-10-13T06:14:36.840Z,53.38
2022-10-13T06:17:03.591Z,53.42
2022-10-13T06:19:29.927Z,53.63
2022-10-13T06:21:59.969Z,53.59
2022-10-13T06:24:28.959Z,53.71
2022-10-13T06:26:55.254Z,53.50
2022-10-13T06:29:21.625Z,53.66
2022-10-13T06:31:47.924Z,54.15
2022-10-13T06:34:14.631Z,53.82
2022-10-13T06:36:42.060Z,54.09
2022-10-13T06:39:08.937Z,54.14
2022-10-13T06:41:35.254Z,54.22
2022-10-13T06:44:01.612Z,54.37
2022-10-13T06:46:27.920Z,54.33
2022-10-13T06:48:54.256Z,54.57
2022-10-13T06:51:21.234Z,55.00
2022-10-13T06:53:47.735Z,54.89
2022-10-13T06:56:14.272Z,54.94
2022-10-13T06:58:43.494Z,55.42
2022-10-13T07:01:13.026Z,55.83
2022-10-13T07:03:39.324Z,55.70
2022-10-13T07:06:06.615Z,55.83
2022-10-13T07:08:34.385Z,55.34
2022-10-13T07:11:09.536Z,55.70
2022-10-13T07:13:40.118Z,55.91
2022-10-13T07:16:10.065Z,55.78
2022-10-13T07:18:36.959Z,55.69
2022-10-13T07:21:03.677Z,55.57
2022-10-13T07:23:30.360Z,55.65
2022-10-13T07:25:57.098Z,55.84
2022-10-13T07:28:24.638Z,55.95
2022-10-13T07:30:51.075Z,56.11
2022-10-13T07:33:17.420Z,56.30
2022-10-13T07:35:43.715Z,56.41
2022-10-13T07:38:10.127Z,56.41
2022-10-13T07:40:36.443Z,56.47
2022-10-13T07:43:02.880Z,56.75
2022-10-13T07:45:29.236Z,56.75
2022-10-13T07:47:56.268Z,56.48
2022-10-13T07:50:22.807Z,57.03
2022-10-13T07:52:49.266Z,56.65
2022-10-13T07:55:15.731Z,56.92
2022-10-13T07:57:42.040Z,56.93
2022-10-13T08:00:09.683Z,56.76
2022-10-13T08:02:36.047Z,56.63
2022-10-13T08:05:03.639Z,56.99
2022-10-13T08:07:29.980Z,57.10
2022-10-13T08:09:56.275Z,56.96
2022-10-13T08:12:22.879Z,57.11
2022-10-13T08:14:52.144Z,57.07
2022-10-13T08:17:18.732Z,56.83
2022-10-13T08:19:45.564Z,56.99
2022-10-13T08:22:12.438Z,57.43
2022-10-13T08:24:38.745Z,57.23
2022-10-13T08:27:05.075Z,57.66
2022-10-13T08:29:31.489Z,57.18
2022-10-13T08:31:57.848Z,57.33
2022-10-13T08:34:24.460Z,57.89
2022-10-13T08:36:53.453Z,58.07
2022-10-13T08:39:21.412Z,57.57
2022-10-13T08:41:48.172Z,58.15
2022-10-13T08:47:24.250Z,58.35
2022-10-13T08:49:50.918Z,58.52
2022-10-13T08:52:23.297Z,58.49
2022-10-13T08:54:50.494Z,58.06
2022-10-13T08:57:18.386Z,58.23
2022-10-13T08:59:45.637Z,58.37
2022-10-13T09:02:15.011Z,58.77
2022-10-13T09:04:44.968Z,58.62
2022-10-13T09:07:26.427Z,58.43
2022-10-13T09:09:54.580Z,58.58
2022-10-13T09:12:24.212Z,58.71
2022-10-13T09:14:58.354Z,58.14
2022-10-13T09:17:26.882Z,58.36
2022-10-13T09:20:21.987Z,58.34
2022-10-13T09:23:02.115Z,58.58
2022-10-13T09:25:29.370Z,58.17
2022-10-13T09:27:59.100Z,58.35
2022-10-13T09:30:38.255Z,58.22
2022-10-13T09:33:04.491Z,58.24
2022-10-13T09:35:33.426Z,58.22
2022-10-13T09:38:10.497Z,58.28
2022-10-13T09:40:37.656Z,58.58
2022-10-13T09:43:22.452Z,58.51
2022-10-13T09:45:48.763Z,58.25
2022-10-13T09:48:25.133Z,58.45
2022-10-13T09:50:54.512Z,58.58
2022-10-13T09:53:37.200Z,58.08
2022-10-13T09:56:18.998Z,58.10
2022-10-13T09:59:08.743Z,58.45
2022-10-13T10:01:41.377Z,58.52
2022-10-13T10:04:14.494Z,58.29
2022-10-13T10:06:41.915Z,58.25
2022-10-13T10:09:34.297Z,58.15
2022-10-13T10:12:02.620Z,58.16
2022-10-13T10:14:36.053Z,58.49
2022-10-13T10:17:24.079Z,58.50
2022-10-13T10:20:30.119Z,58.40
2022-10-13T10:23:22.826Z,58.22
2022-10-13T10:25:59.751Z,58.21
2022-10-13T10:28:39.930Z,58.04
2022-10-13T10:31:43.750Z,58.30
2022-10-13T10:34:30.939Z,58.33
2022-10-13T10:37:06.285Z,58.48
2022-10-13T10:40:03.450Z,58.73
2022-10-13T10:42:59.829Z,58.59
2022-10-13T10:45:31.244Z,59.09
2022-10-13T10:48:02.556Z,58.98
2022-10-13T10:50:30.773Z,59.23
2022-10-13T10:53:05.987Z,59.21
2022-10-13T10:55:34.300Z,59.48
2022-10-13T10:58:20.495Z,59.23
2022-10-13T11:00:58.941Z,59.25
2022-10-13T11:03:38.710Z,59.19
2022-10-13T11:06:35.742Z,58.96
2022-10-13T11:09:04.256Z,59.42
2022-10-13T11:11:37.556Z,59.10
2022-10-13T11:14:10.315Z,58.89
2022-10-13T11:17:02.843Z,59.30
2022-10-13T11:19:29.085Z,59.54
2022-10-13T11:21:55.617Z,59.36
2022-10-13T11:24:34.230Z,59.17
2022-10-13T11:27:15.715Z,59.09
2022-10-13T11:29:57.250Z,59.63
2022-10-13T11:32:35.651Z,59.56
2022-10-13T11:35:04.655Z,59.56
2022-10-13T11:37:55.679Z,59.05
2022-10-13T11:40:45.464Z,59.20
2022-10-13T11:43:26.769Z,59.36
2022-10-13T11:46:16.456Z,59.65
2022-10-13T11:49:07.384Z,59.74
2022-10-13T11:52:02.029Z,59.42
2022-10-13T11:54:28.339Z,59.61
2022-10-13T11:56:57.181Z,59.95
2022-10-13T11:59:29.192Z,59.58
2022-10-13T12:02:05.439Z,59.98
2022-10-13T12:04:31.758Z,59.58
2022-10-13T12:07:07.414Z,59.57
2022-10-13T12:09:56.965Z,59.85
2022-10-13T12:12:24.756Z,59.58
2022-10-13T12:14:53.881Z,59.77
2022-10-13T12:17:32.703Z,59.53
2022-10-13T12:20:19.624Z,60.02
2022-10-13T12:22:50.183Z,59.79
2022-10-13T12:25:18.913Z,59.93
2022-10-13T12:27:51.469Z,59.73
2022-10-13T12:30:25.692Z,59.52
2022-10-13T12:32:54.828Z,59.41
2022-10-13T12:35:23.855Z,59.45
2022-10-13T12:37:51.464Z,59.54
2022-10-13T12:40:18.867Z,59.18
2022-10-13T12:42:46.279Z,59.46
2022-10-13T12:45:21.410Z,59.20
2022-10-13T12:47:50.935Z,58.95
2022-10-13T12:50:29.106Z,58.90
2022-10-13T12:53:17.613Z,59.23
2022-10-13T12:55:55.324Z,58.94
2022-10-13T12:58:25.778Z,59.02
2022-10-13T13:00:56.807Z,58.85
2022-10-13T13:03:28.190Z,58.95
2022-10-13T13:06:07.933Z,58.96
2022-10-13T13:08:34.439Z,58.85
2022-10-13T13:11:03.891Z,59.10
2022-10-13T13:13:30.403Z,58.75
2022-10-13T13:16:20.836Z,58.83
2022-10-13T13:18:49.749Z,59.07
2022-10-13T13:21:18.611Z,59.10
2022-10-13T13:23:51.165Z,59.37
2022-10-13T13:26:23.084Z,59.35
2022-10-13T13:28:54.943Z,59.31
2022-10-13T13:31:23.800Z,59.42
2022-10-13T13:33:50.398Z,59.27
2022-10-13T13:36:24.821Z,59.55
2022-10-13T13:38:52.470Z,59.32
2022-10-13T13:41:19.478Z,59.17
2022-10-13T13:43:45.951Z,59.29
2022-10-13T13:46:24.289Z,59.17
2022-10-13T13:48:51.225Z,59.08
2022-10-13T13:51:17.908Z,59.22
2022-10-13T13:53:44.624Z,59.18
2022-10-13T13:56:16.255Z,59.02
2022-10-13T13:58:43.520Z,59.26
2022-10-13T14:01:11.078Z,58.96
2022-10-13T14:03:37.760Z,59.31
2022-10-13T14:06:04.185Z,59.30
2022-10-13T14:08:35.317Z,59.21
2022-10-13T14:11:06.147Z,59.34
2022-10-13T14:13:33.559Z,59.20
2022-10-13T14:16:02.099Z,59.10
2022-10-13T14:18:28.780Z,59.35
2022-10-13T14:20:55.093Z,59.42
2022-10-13T14:23:21.462Z,59.39
2022-10-13T14:25:47.785Z,59.12
2022-10-13T14:28:18.056Z,59.41
2022-10-13T14:30:44.827Z,59.35
2022-10-13T14:33:11.151Z,59.32
2022-10-13T14:35:37.456Z,59.31
2022-10-13T14:38:03.828Z,59.34
2022-10-13T14:40:30.145Z,59.20
2022-10-13T14:42:56.464Z,59.44
2022-10-13T14:45:22.771Z,58.99
2022-10-13T14:47:52.464Z,59.04
2022-10-13T14:50:18.808Z,59.50
2022-10-13T14:52:45.352Z,59.27
2022-10-13T14:55:11.683Z,59.00
2022-10-13T14:57:38.034Z,59.21
2022-10-13T15:00:04.780Z,59.13
2022-10-13T15:02:31.094Z,59.24
2022-10-13T15:04:57.855Z,59.33
2022-10-13T15:07:24.294Z,59.37
2022-10-13T15:10:04.985Z,59.24
2022-10-13T15:12:32.464Z,59.14
2022-10-13T15:14:58.773Z,59.39
2022-10-13T15:17:25.316Z,59.42
2022-10-13T15:19:51.638Z,59.21
2022-10-13T15:22:18.083Z,59.12
2022-10-13T15:24:45.569Z,59.56
2022-10-13T15:27:11.866Z,59.51
2022-10-13T15:29:38.199Z,59.60
2022-10-13T15:32:12.538Z,59.61
2022-10-13T15:34:39.908Z,59.33
2022-10-13T15:37:06.731Z,59.62
2022-10-13T15:39:33.031Z,59.30
2022-10-13T15:41:59.491Z,59.47
2022-10-13T15:44:25.898Z,59.46
2022-10-13T15:47:07.398Z,59.27
2022-10-13T15:49:39.085Z,59.63
2022-10-13T15:52:05.593Z,59.56
2022-10-13T15:54:32.126Z,59.10
2022-10-13T15:56:58.431Z,59.44
2022-10-13T15:59:25.530Z,59.31
2022-10-13T16:01:51.910Z,59.14
2022-10-13T16:04:18.226Z,59.09
2022-10-13T16:06:44.613Z,59.07
2022-10-13T16:09:10.923Z,58.89
2022-10-13T16:11:37.844Z,59.34
2022-10-13T16:14:04.147Z,58.97
2022-10-13T16:16:30.603Z,59.09
2022-10-13T16:18:57.066Z,59.11
2022-10-13T16:21:25.917Z,59.19
2022-10-13T16:23:52.696Z,59.54
2022-10-13T16:26:19.457Z,59.66
2022-10-13T16:28:46.643Z,60.67
2022-10-13T16:31:16.420Z,60.56
2022-10-13T16:33:44.666Z,60.44
2022-10-13T16:36:16.483Z,60.58
2022-10-13T16:38:46.903Z,60.36
2022-10-13T16:41:16.864Z,60.82
2022-10-13T16:43:44.414Z,60.89
2022-10-13T16:46:15.943Z,60.73
2022-10-13T16:48:43.891Z,60.67
2022-10-13T16:51:14.667Z,60.41
2022-10-13T16:53:41.349Z,60.30
2022-10-13T16:56:08.358Z,60.09
2022-10-13T16:58:35.251Z,60.53
2022-10-13T17:01:03.423Z,60.64
2022-10-13T17:03:29.786Z,60.20
2022-10-13T17:05:56.170Z,60.29
2022-10-13T17:08:22.526Z,60.30
2022-10-13T17:10:55.909Z,60.33
2022-10-13T17:13:24.256Z,60.12
2022-10-13T17:15:55.028Z,60.07
2022-10-13T17:18:22.075Z,60.35
2022-10-13T17:20:59.643Z,60.21
2022-10-13T17:23:27.211Z,60.30
2022-10-13T17:25:54.720Z,60.09
2022-10-13T17:28:21.900Z,60.17
2022-10-13T17:31:02.703Z,60.25
2022-10-13T17:33:30.870Z,59.64
2022-10-13T17:36:01.928Z,60.30
2022-10-13T17:38:29.148Z,60.69
2022-10-13T17:41:00.574Z,60.45
2022-10-13T17:43:27.378Z,60.75
2022-10-13T17:45:53.864Z,60.79
2022-10-13T17:48:23.109Z,60.45
2022-10-13T17:50:49.661Z,60.54
2022-10-13T17:53:16.185Z,60.54
2022-10-13T17:55:42.482Z,60.82
2022-10-13T17:58:08.801Z,60.73
2022-10-13T18:00:54.125Z,60.92
2022-10-13T18:03:21.567Z,60.53
2022-10-13T18:05:47.909Z,60.90
2022-10-13T18:08:14.251Z,60.57
2022-10-13T18:11:07.161Z,60.87
2022-10-13T18:13:26.850Z,60.74
2022-10-13T18:15:53.169Z,60.80
2022-10-13T18:18:19.550Z,61.35
2022-10-13T18:20:45.868Z,61.27
2022-10-13T18:23:12.187Z,61.47
2022-10-13T18:25:38.687Z,61.63
2022-10-13T18:28:04.986Z,61.38
2022-10-13T18:30:31.973Z,61.52
2022-10-13T18:32:58.307Z,61.51
2022-10-13T18:35:27.551Z,61.51
2022-10-13T18:37:56.306Z,61.22
2022-10-13T18:40:22.638Z,61.51
2022-10-13T18:42:54.202Z,61.46
2022-10-13T18:45:21.063Z,61.46
2022-10-13T18:47:51.087Z,61.19
2022-10-13T18:50:17.589Z,61.07
2022-10-13T18:52:43.907Z,60.95
2022-10-13T18:55:10.275Z,60.83
2022-10-13T18:57:37.907Z,60.89
2022-10-13T19:00:06.673Z,61.16
2022-10-13T19:02:33.401Z,61.06
2022-10-13T19:04:59.712Z,61.00
2022-10-13T19:07:26.007Z,61.23
2022-10-13T19:09:53.303Z,61.41
2022-10-13T19:12:19.632Z,61.31
2022-10-13T19:14:45.955Z,61.46
2022-10-13T19:17:12.270Z,61.10
2022-10-13T19:19:39.035Z,61.43
2022-10-13T19:22:07.521Z,61.57
2022-10-13T19:24:33.816Z,61.09
2022-10-13T19:27:00.155Z,61.15
2022-10-13T19:29:26.731Z,61.06
2022-10-13T19:31:53.157Z,61.44
2022-10-13T19:34:19.596Z,61.13
2022-10-13T19:36:47.320Z,61.12
2022-10-13T19:39:15.317Z,61.16
2022-10-13T19:41:43.114Z,61.38
2022-10-13T19:44:09.498Z,61.24
2022-10-13T19:46:36.402Z,61.00
2022-10-13T19:49:04.063Z,61.37
2022-10-13T19:51:30.557Z,61.27
2022-10-13T19:53:56.892Z,61.35
2022-10-13T19:56:25.950Z,61.30
2022-10-13T19:58:53.180Z,61.16
2022-10-13T20:01:20.437Z,61.16
2022-10-13T20:03:47.665Z,60.83
2022-10-13T20:06:14.519Z,61.04
2022-10-13T20:08:41.035Z,60.83
2022-10-13T20:11:12.387Z,60.87
2022-10-13T20:13:38.888Z,60.79
2022-10-13T20:16:16.958Z,60.86
2022-10-13T20:18:43.364Z,60.79
2022-10-13T20:21:12.007Z,60.81
2022-10-13T20:23:40.504Z,60.86
2022-10-13T20:26:12.629Z,60.89
2022-10-13T20:28:43.118Z,60.21
2022-10-13T20:31:10.511Z,60.58
2022-10-13T20:33:36.871Z,60.34
2022-10-13T20:36:06.705Z,60.29
2022-10-13T20:38:37.172Z,60.73
2022-10-13T20:41:07.355Z,60.48
2022-10-13T20:43:34.661Z,60.23
2022-10-13T20:46:06.144Z,60.46
2022-10-13T20:48:57.912Z,60.18
2022-10-13T20:51:22.917Z,60.03
2022-10-13T20:53:49.658Z,59.94
2022-10-13T20:56:19.008Z,60.28
2022-10-13T20:58:46.387Z,60.03
2022-10-13T21:01:13.537Z,59.71
2022-10-13T21:03:40.099Z,59.59
2022-10-13T21:06:08.910Z,60.10
2022-10-13T21:08:35.755Z,60.05
2022-10-13T21:11:08.274Z,59.91
2022-10-13T21:13:35.284Z,59.69
2022-10-13T21:16:09.432Z,59.58
2022-10-13T21:18:35.769Z,59.67
2022-10-13T21:21:07.371Z,59.49
2022-10-13T21:23:34.410Z,59.90
2022-10-13T21:26:02.687Z,59.59
2022-10-13T21:28:29.912Z,59.50
2022-10-13T21:31:01.132Z,59.80
2022-10-13T21:33:27.520Z,59.45
2022-10-13T21:35:53.952Z,59.33
2022-10-13T21:38:20.485Z,59.42
2022-10-13T21:40:49.371Z,59.49
2022-10-13T21:43:19.854Z,59.36
2022-10-13T21:45:46.178Z,59.41
2022-10-13T21:48:12.499Z,59.56
2022-10-13T21:50:38.796Z,59.21
2022-10-13T21:53:05.117Z,59.18
2022-10-13T21:55:32.920Z,59.32
2022-10-13T21:58:05.232Z,59.16
2022-10-13T22:00:32.670Z,59.30
2022-10-13T22:02:59.085Z,59.13
2022-10-13T22:05:25.460Z,59.10
2022-10-13T22:07:51.820Z,59.05
2022-10-13T22:10:18.366Z,58.91
2022-10-13T22:12:44.741Z,58.76
2022-10-13T22:15:11.577Z,58.83
2022-10-13T22:17:37.953Z,58.97
2022-10-13T22:20:04.619Z,59.05
2022-10-13T22:22:31.218Z,58.91
2022-10-13T22:24:57.581Z,58.67
2022-10-13T22:27:24.019Z,58.76
2022-10-13T22:29:50.363Z,58.52
2022-10-13T22:32:16.682Z,58.49
2022-10-13T22:34:42.999Z,58.59
2022-10-13T22:37:09.294Z,58.49
2022-10-13T22:39:35.613Z,58.78
2022-10-13T22:42:01.923Z,58.55
2022-10-13T22:44:28.237Z,58.46
2022-10-13T22:46:54.569Z,58.40
2022-10-13T22:49:20.899Z,58.70
2022-10-13T22:51:47.235Z,58.26
2022-10-13T22:54:13.521Z,58.18
2022-10-13T22:56:40.348Z,58.41
2022-10-13T22:59:08.109Z,58.07
2022-10-13T23:01:34.823Z,58.17
2022-10-13T23:04:01.214Z,58.28
2022-10-13T23:06:33.024Z,58.20
2022-10-13T23:09:00.518Z,58.43
2022-10-13T23:11:26.984Z,58.27
2022-10-13T23:13:53.553Z,58.37
2022-10-13T23:16:23.060Z,57.79
2022-10-13T23:18:49.943Z,58.25
2022-10-13T23:21:18.861Z,57.85
2022-10-13T23:23:45.699Z,57.81
2022-10-13T23:26:16.619Z,57.82
2022-10-13T23:28:43.768Z,58.07
2022-10-13T23:31:15.236Z,57.90
2022-10-13T23:33:41.858Z,57.79
2022-10-13T23:36:12.864Z,58.08
2022-10-13T23:38:39.368Z,57.84
2022-10-13T23:41:08.354Z,57.67
2022-10-13T23:43:35.406Z,57.92
2022-10-13T23:46:01.865Z,57.84
2022-10-13T23:48:29.019Z,57.85
2022-10-13T23:50:55.483Z,57.82
2022-10-13T23:53:21.926Z,57.70
2022-10-13T23:55:48.487Z,57.62
2022-10-13T23:58:14.915Z,57.74
